createdAt,value
2022-11-20T00:02:26.780Z,11.75
2022-11-20T00:04:53.242Z,11.13
2022-11-20T00:07:19.748Z,10.45
2022-11-20T00:09:46.088Z,10.32
2022-11-20T00:12:12.568Z,10.80
2022-11-20T00:14:38.968Z,13.15
2022-11-20T00:17:05.288Z,10.82
2022-11-20T00:19:31.747Z,12.13
2022-11-20T00:21:58.148Z,11.43
2022-11-20T00:24:24.506Z,10.80
2022-11-20T00:26:50.924Z,11.82
2022-11-20T00:29:17.395Z,10.90
2022-11-20T00:31:43.806Z,11.18
2022-11-20T00:34:10.639Z,13.05
2022-11-20T00:36:36.990Z,13.75
2022-11-20T00:39:03.403Z,13.55
2022-11-20T00:41:30.294Z,14.52
2022-11-20T00:43:57.168Z,16.63
2022-11-20T00:46:24.270Z,15.43
2022-11-20T00:48:50.671Z,12.18
2022-11-20T00:51:18.804Z,10.85
2022-11-20T00:53:45.208Z,10.50
2022-11-20T00:56:12.738Z,9.73
2022-11-20T00:58:39.855Z,11.43
2022-11-20T01:01:13.707Z,12.98
2022-11-20T01:03:41.595Z,10.82
2022-11-20T01:06:11.104Z,12.57
2022-11-20T01:08:37.948Z,11.45
2022-11-20T01:11:08.797Z,11.00
2022-11-20T01:13:39.232Z,10.80
2022-11-20T01:16:07.090Z,10.40
2022-11-20T01:18:33.805Z,13.65
2022-11-20T01:21:04.558Z,11.15
2022-11-20T01:23:31.838Z,12.30
2022-11-20T01:25:59.958Z,10.90
2022-11-20T01:28:26.382Z,12.05
2022-11-20T01:30:52.766Z,12.05
2022-11-20T01:33:19.255Z,10.75
2022-11-20T01:35:45.583Z,11.15
2022-11-20T01:38:12.018Z,12.32
2022-11-20T01:40:38.409Z,10.65
2022-11-20T01:43:21.292Z,9.38
2022-11-20T01:45:57.941Z,8.38
2022-11-20T01:48:25.875Z,10.27
2022-11-20T01:50:53.454Z,9.50
2022-11-20T01:53:22.289Z,9.48
2022-11-20T01:55:51.068Z,10.90
2022-11-20T01:58:19.172Z,10.90
2022-11-20T02:00:46.919Z,10.80
2022-11-20T02:03:15.715Z,9.77
2022-11-20T02:05:42.007Z,9.27
2022-11-20T02:08:08.431Z,9.60
2022-11-20T02:10:35.267Z,10.07
2022-11-20T02:13:20.350Z,10.45
2022-11-20T02:15:47.360Z,11.15
2022-11-20T02:18:15.297Z,10.85
2022-11-20T02:20:44.152Z,11.68
2022-11-20T02:23:17.350Z,11.55
2022-11-20T02:25:44.446Z,11.85
2022-11-20T02:28:11.148Z,11.93
2022-11-20T02:30:37.492Z,10.50
2022-11-20T02:33:03.970Z,10.63
2022-11-20T02:35:30.301Z,11.25
2022-11-20T02:37:57.888Z,11.65
2022-11-20T02:40:24.535Z,12.23
2022-11-20T02:42:54.374Z,10.60
2022-11-20T02:45:20.775Z,12.57
2022-11-20T02:47:47.270Z,13.15
2022-11-20T02:50:13.854Z,13.57
2022-11-20T02:52:40.191Z,12.95
2022-11-20T02:55:06.896Z,13.50
2022-11-20T02:57:33.421Z,13.30
2022-11-20T02:59:59.814Z,11.15
2022-11-20T03:02:26.249Z,11.13
2022-11-20T03:04:52.684Z,11.48
2022-11-20T03:07:19.177Z,10.88
2022-11-20T03:09:45.676Z,10.10
2022-11-20T03:12:12.068Z,11.98
2022-11-20T03:14:38.419Z,12.93
2022-11-20T03:17:04.844Z,12.02
2022-11-20T03:19:31.415Z,11.80
2022-11-20T03:21:57.816Z,11.55
2022-11-20T03:24:24.247Z,11.55
2022-11-20T03:26:50.639Z,11.30
2022-11-20T03:29:17.012Z,10.18
2022-11-20T03:31:44.513Z,10.25
2022-11-20T03:34:12.007Z,11.95
2022-11-20T03:36:39.415Z,14.77
2022-11-20T03:39:05.870Z,14.52
2022-11-20T03:41:36.086Z,15.18
2022-11-20T03:44:03.563Z,13.43
2022-11-20T03:46:30.323Z,13.70
2022-11-20T03:48:57.032Z,14.07
2022-11-20T03:51:24.897Z,14.38
2022-11-20T03:53:52.147Z,13.60
2022-11-20T03:56:19.851Z,13.50
2022-11-20T03:58:46.376Z,12.80
2022-11-20T04:01:14.080Z,12.85
2022-11-20T04:03:41.215Z,12.57
2022-11-20T04:06:08.932Z,14.00
2022-11-20T04:08:35.646Z,12.52
2022-11-20T04:11:16.315Z,12.38
2022-11-20T04:13:43.603Z,11.90
2022-11-20T04:16:10.424Z,12.85
2022-11-20T04:18:36.974Z,11.38
2022-11-20T04:21:03.802Z,11.93
2022-11-20T04:23:30.195Z,13.60
2022-11-20T04:26:03.888Z,12.82
2022-11-20T04:28:30.331Z,11.27
2022-11-20T04:31:02.478Z,13.48
2022-11-20T04:33:32.674Z,12.02
2022-11-20T04:36:01.829Z,11.65
2022-11-20T04:38:28.500Z,11.23
2022-11-20T04:40:59.223Z,11.68
2022-11-20T04:43:25.711Z,12.73
2022-11-20T04:45:53.035Z,11.40
2022-11-20T04:48:19.461Z,12.63
2022-11-20T04:50:46.003Z,12.68
2022-11-20T04:53:12.451Z,12.38
2022-11-20T04:55:38.898Z,13.05
2022-11-20T04:58:05.291Z,12.65
2022-11-20T05:00:31.725Z,12.90
2022-11-20T05:02:58.134Z,11.63
2022-11-20T05:05:24.500Z,12.02
2022-11-20T05:07:50.918Z,12.00
2022-11-20T05:10:17.419Z,12.95
2022-11-20T05:12:43.771Z,12.07
2022-11-20T05:15:10.418Z,13.48
2022-11-20T05:17:36.877Z,12.45
2022-11-20T05:20:03.438Z,12.93
2022-11-20T05:22:29.807Z,13.98
2022-11-20T05:24:56.181Z,12.95
2022-11-20T05:27:22.579Z,11.50
2022-11-20T05:29:49.000Z,11.85
2022-11-20T05:32:15.342Z,13.93
2022-11-20T05:34:41.791Z,13.60
2022-11-20T05:37:08.240Z,12.65
2022-11-20T05:39:34.668Z,13.57
2022-11-20T05:42:19.927Z,12.85
2022-11-20T05:44:46.280Z,12.77
2022-11-20T05:47:12.648Z,13.32
2022-11-20T05:49:39.010Z,12.75
2022-11-20T05:52:05.451Z,12.27
2022-11-20T05:54:31.989Z,14.55
2022-11-20T05:56:58.380Z,13.10
2022-11-20T05:59:24.715Z,13.50
2022-11-20T06:01:51.498Z,13.45
2022-11-20T06:04:17.909Z,11.95
2022-11-20T06:06:44.404Z,13.15
2022-11-20T06:09:10.792Z,14.00
2022-11-20T06:11:37.224Z,13.10
2022-11-20T06:14:03.658Z,14.48
2022-11-20T06:16:30.053Z,14.18
2022-11-20T06:18:56.377Z,12.65
2022-11-20T06:21:23.428Z,13.95
2022-11-20T06:23:50.435Z,12.93
2022-11-20T06:26:20.873Z,13.68
2022-11-20T06:28:47.338Z,13.07
2022-11-20T06:31:14.564Z,13.38
2022-11-20T06:33:41.494Z,14.07
2022-11-20T06:36:10.964Z,12.15
2022-11-20T06:38:37.788Z,14.07
2022-11-20T06:41:04.701Z,12.88
2022-11-20T06:43:31.107Z,14.82
2022-11-20T06:45:58.444Z,14.20
2022-11-20T06:48:26.348Z,12.57
2022-11-20T06:50:52.726Z,13.60
2022-11-20T06:53:19.171Z,13.60
2022-11-20T06:55:46.075Z,18.15
2022-11-20T06:58:13.042Z,16.75
2022-11-20T07:00:39.582Z,16.02
2022-11-20T07:03:07.895Z,13.65
2022-11-20T07:05:34.578Z,14.30
2022-11-20T07:08:00.908Z,14.90
2022-11-20T07:10:27.636Z,15.68
2022-11-20T07:12:54.270Z,14.10
2022-11-20T07:15:21.327Z,13.18
2022-11-20T07:17:47.821Z,16.48
2022-11-20T07:20:14.616Z,14.55
2022-11-20T07:22:40.979Z,15.23
2022-11-20T07:25:08.151Z,14.77
2022-11-20T07:27:35.112Z,14.40
2022-11-20T07:30:01.683Z,14.65
2022-11-20T07:32:28.111Z,16.08
2022-11-20T07:34:54.589Z,16.13
2022-11-20T07:37:21.472Z,17.00
2022-11-20T07:39:47.788Z,16.92
2022-11-20T07:42:14.152Z,16.20
2022-11-20T07:44:40.588Z,16.85
2022-11-20T07:47:07.003Z,15.73
2022-11-20T07:49:34.168Z,17.20
2022-11-20T07:52:04.700Z,17.38
2022-11-20T07:54:31.628Z,17.50
2022-11-20T07:56:57.944Z,15.98
2022-11-20T07:59:24.491Z,18.95
2022-11-20T08:01:50.973Z,17.27
2022-11-20T08:04:17.558Z,19.45
2022-11-20T08:06:43.936Z,17.80
2022-11-20T08:09:10.628Z,18.35
2022-11-20T08:12:12.285Z,20.63
2022-11-20T08:14:38.732Z,20.73
2022-11-20T08:17:05.154Z,18.13
2022-11-20T08:19:31.590Z,17.52
2022-11-20T08:21:58.048Z,16.13
2022-11-20T08:24:25.663Z,16.38
2022-11-20T08:26:51.999Z,16.55
2022-11-20T08:29:18.604Z,16.98
2022-11-20T08:31:45.021Z,14.93
2022-11-20T08:34:16.215Z,16.40
2022-11-20T08:36:45.195Z,18.70
2022-11-20T08:39:12.471Z,16.85
2022-11-20T08:41:38.927Z,15.95
2022-11-20T08:44:07.642Z,17.15
2022-11-20T08:46:44.595Z,17.10
2022-11-20T08:49:11.889Z,17.17
2022-11-20T08:51:38.833Z,17.58
2022-11-20T08:54:05.547Z,17.88
2022-11-20T08:56:32.362Z,18.77
2022-11-20T09:01:46.983Z,16.95
2022-11-20T09:04:15.227Z,18.88
2022-11-20T09:06:41.624Z,18.92
2022-11-20T09:09:08.969Z,19.13
2022-11-20T09:11:35.931Z,18.88
2022-11-20T09:14:03.643Z,18.15
2022-11-20T09:16:30.158Z,17.98
2022-11-20T09:19:20.168Z,17.15
2022-11-20T09:21:42.834Z,17.50
2022-11-20T09:24:09.333Z,16.30
2022-11-20T09:26:35.723Z,16.73
2022-11-20T09:29:02.151Z,17.88
2022-11-20T09:31:28.549Z,17.48
2022-11-20T09:33:58.916Z,16.88
2022-11-20T09:36:25.254Z,16.58
2022-11-20T09:38:51.737Z,19.13
2022-11-20T09:41:39.484Z,16.67
2022-11-20T09:44:15.041Z,16.40
2022-11-20T09:46:46.379Z,16.38
2022-11-20T09:49:34.187Z,16.02
2022-11-20T09:52:06.550Z,17.13
2022-11-20T09:54:36.572Z,16.35
2022-11-20T09:57:04.654Z,17.13
2022-11-20T09:59:40.581Z,17.63
2022-11-20T10:02:25.260Z,17.90
2022-11-20T10:05:00.726Z,19.15
2022-11-20T10:07:47.353Z,19.08
2022-11-20T10:10:18.312Z,19.33
2022-11-20T10:12:56.670Z,20.95
2022-11-20T10:15:32.862Z,20.23
2022-11-20T10:18:05.747Z,17.73
2022-11-20T10:20:41.852Z,19.55
2022-11-20T10:23:25.428Z,17.58
2022-11-20T10:25:55.478Z,18.25
2022-11-20T10:28:31.169Z,18.73
2022-11-20T10:31:00.987Z,19.08
2022-11-20T10:33:49.938Z,17.65
2022-11-20T10:36:19.998Z,18.70
2022-11-20T10:38:59.519Z,19.60
2022-11-20T10:41:30.853Z,19.27
2022-11-20T10:44:10.362Z,17.00
2022-11-20T10:46:49.258Z,18.65
2022-11-20T10:49:35.495Z,19.08
2022-11-20T10:52:11.119Z,18.80
2022-11-20T10:54:42.019Z,20.75
2022-11-20T10:57:19.822Z,19.23
2022-11-20T11:00:06.525Z,19.05
2022-11-20T11:02:34.898Z,17.95
2022-11-20T11:05:09.165Z,18.27
2022-11-20T11:07:39.942Z,18.83
2022-11-20T11:10:32.578Z,19.00
2022-11-20T11:12:59.154Z,19.50
2022-11-20T11:15:39.420Z,20.55
2022-11-20T11:18:06.054Z,18.48
2022-11-20T11:20:33.295Z,18.63
2022-11-20T11:23:00.167Z,19.38
2022-11-20T11:25:28.426Z,21.52
2022-11-20T11:27:57.053Z,21.38
2022-11-20T11:30:24.230Z,19.42
2022-11-20T11:32:50.743Z,20.42
2022-11-20T11:35:25.050Z,19.38
2022-11-20T11:37:52.530Z,18.98
2022-11-20T11:40:24.699Z,17.65
